sensor_id;sensor_type;location;lat;lon;timestamp;P1;durP1;ratioP1;P2;durP2;ratioP2
40044;SDS011;25735;48.122;11.422;2023-03-08T00:00:56;10.80;;;7.65;;
40044;SDS011;25735;48.122;11.422;2023-03-08T00:03:21;15.73;;;8.67;;
40044;SDS011;25735;48.122;11.422;2023-03-08T00:05:46;13.43;;;7.80;;
40044;SDS011;25735;48.122;11.422;2023-03-08T00:08:12;12.27;;;7.97;;
40044;SDS011;25735;48.122;11.422;2023-03-08T00:10:37;12.00;;;8.40;;
40044;SDS011;25735;48.122;11.422;2023-03-08T00:13:02;13.57;;;8.80;;
40044;SDS011;25735;48.122;11.422;2023-03-08T00:15:27;11.57;;;7.35;;
40044;SDS011;25735;48.122;11.422;2023-03-08T00:17:52;12.33;;;7.80;;
40044;SDS011;25735;48.122;11.422;2023-03-08T00:20:18;10.90;;;6.82;;
40044;SDS011;25735;48.122;11.422;2023-03-08T00:22:43;14.07;;;7.50;;
40044;SDS011;25735;48.122;11.422;2023-03-08T00:25:08;13.03;;;7.80;;
40044;SDS011;25735;48.122;11.422;2023-03-08T00:27:37;13.23;;;7.20;;
40044;SDS011;25735;48.122;11.422;2023-03-08T00:30:05;11.15;;;6.95;;
40044;SDS011;25735;48.122;11.422;2023-03-08T00:32:31;12.32;;;7.05;;
40044;SDS011;25735;48.122;11.422;2023-03-08T00:34:56;10.77;;;6.73;;
40044;SDS011;25735;48.122;11.422;2023-03-08T00:37:21;11.55;;;6.95;;
40044;SDS011;25735;48.122;11.422;2023-03-08T00:39:50;10.65;;;7.70;;
40044;SDS011;25735;48.122;11.422;2023-03-08T00:42:16;13.05;;;6.93;;
40044;SDS011;25735;48.122;11.422;2023-03-08T00:44:41;11.63;;;6.13;;
40044;SDS011;25735;48.122;11.422;2023-03-08T00:47:06;11.40;;;6.80;;
40044;SDS011;25735;48.122;11.422;2023-03-08T00:49:31;12.93;;;6.87;;
40044;SDS011;25735;48.122;11.422;2023-03-08T00:51:57;12.83;;;7.47;;
40044;SDS011;25735;48.122;11.422;2023-03-08T00:54:22;13.18;;;7.07;;
40044;SDS011;25735;48.122;11.422;2023-03-08T00:56:47;10.55;;;6.32;;
40044;SDS011;25735;48.122;11.422;2023-03-08T00:59:12;13.65;;;8.48;;
40044;SDS011;25735;48.122;11.422;2023-03-08T01:01:37;11.17;;;6.27;;
40044;SDS011;25735;48.122;11.422;2023-03-08T01:04:02;10.57;;;6.30;;
40044;SDS011;25735;48.122;11.422;2023-03-08T01:06:28;10.13;;;6.65;;
40044;SDS011;25735;48.122;11.422;2023-03-08T01:08:53;10.40;;;6.73;;
40044;SDS011;25735;48.122;11.422;2023-03-08T01:11:22;12.07;;;6.47;;
40044;SDS011;25735;48.122;11.422;2023-03-08T01:13:48;9.40;;;6.40;;
40044;SDS011;25735;48.122;11.422;2023-03-08T01:16:15;10.85;;;6.88;;
40044;SDS011;25735;48.122;11.422;2023-03-08T01:18:41;13.07;;;7.40;;
40044;SDS011;25735;48.122;11.422;2023-03-08T01:21:06;12.13;;;7.57;;
40044;SDS011;25735;48.122;11.422;2023-03-08T01:23:31;11.07;;;6.88;;
40044;SDS011;25735;48.122;11.422;2023-03-08T01:25:57;11.43;;;6.97;;
40044;SDS011;25735;48.122;11.422;2023-03-08T01:28:22;12.93;;;7.53;;
40044;SDS011;25735;48.122;11.422;2023-03-08T01:30:47;10.53;;;6.50;;
40044;SDS011;25735;48.122;11.422;2023-03-08T01:33:12;10.68;;;7.53;;
40044;SDS011;25735;48.122;11.422;2023-03-08T01:35:37;11.52;;;6.88;;
40044;SDS011;25735;48.122;11.422;2023-03-08T01:38:03;11.48;;;6.60;;
40044;SDS011;25735;48.122;11.422;2023-03-08T01:40:28;14.02;;;7.18;;
40044;SDS011;25735;48.122;11.422;2023-03-08T01:42:53;14.60;;;6.67;;
40044;SDS011;25735;48.122;11.422;2023-03-08T01:48:02;12.25;;;7.22;;
40044;SDS011;25735;48.122;11.422;2023-03-08T01:50:27;13.75;;;7.38;;
40044;SDS011;25735;48.122;11.422;2023-03-08T01:52:52;13.32;;;7.63;;
40044;SDS011;25735;48.122;11.422;2023-03-08T01:55:19;11.52;;;7.60;;
40044;SDS011;25735;48.122;11.422;2023-03-08T01:57:47;11.75;;;6.88;;
40044;SDS011;25735;48.122;11.422;2023-03-08T02:00:14;10.82;;;6.80;;
40044;SDS011;25735;48.122;11.422;2023-03-08T02:02:47;10.95;;;7.50;;
40044;SDS011;25735;48.122;11.422;2023-03-08T02:05:13;13.27;;;7.55;;
40044;SDS011;25735;48.122;11.422;2023-03-08T02:07:39;10.48;;;7.00;;
40044;SDS011;25735;48.122;11.422;2023-03-08T02:10:05;11.38;;;7.25;;
40044;SDS011;25735;48.122;11.422;2023-03-08T02:12:30;12.45;;;7.45;;
40044;SDS011;25735;48.122;11.422;2023-03-08T02:14:56;11.32;;;7.72;;
40044;SDS011;25735;48.122;11.422;2023-03-08T02:17:21;15.50;;;6.95;;
40044;SDS011;25735;48.122;11.422;2023-03-08T02:19:51;14.10;;;8.13;;
40044;SDS011;25735;48.122;11.422;2023-03-08T02:22:17;7.47;;;4.83;;
40044;SDS011;25735;48.122;11.422;2023-03-08T02:24:43;14.25;;;7.75;;
40044;SDS011;25735;48.122;11.422;2023-03-08T02:27:19;12.73;;;7.55;;
40044;SDS011;25735;48.122;11.422;2023-03-08T02:29:45;12.25;;;6.53;;
40044;SDS011;25735;48.122;11.422;2023-03-08T02:32:10;12.30;;;6.73;;
40044;SDS011;25735;48.122;11.422;2023-03-08T02:34:35;11.47;;;7.47;;
40044;SDS011;25735;48.122;11.422;2023-03-08T02:37:01;13.32;;;7.25;;
40044;SDS011;25735;48.122;11.422;2023-03-08T02:39:26;13.98;;;7.70;;
40044;SDS011;25735;48.122;11.422;2023-03-08T02:41:51;16.08;;;7.72;;
40044;SDS011;25735;48.122;11.422;2023-03-08T02:44:17;11.80;;;7.47;;
40044;SDS011;25735;48.122;11.422;2023-03-08T02:46:42;13.05;;;8.15;;
40044;SDS011;25735;48.122;11.422;2023-03-08T02:49:07;12.10;;;7.53;;
40044;SDS011;25735;48.122;11.422;2023-03-08T02:51:32;11.07;;;6.90;;
40044;SDS011;25735;48.122;11.422;2023-03-08T02:53:57;12.45;;;7.68;;
40044;SDS011;25735;48.122;11.422;2023-03-08T02:56:22;13.20;;;7.23;;
40044;SDS011;25735;48.122;11.422;2023-03-08T02:58:48;12.20;;;7.85;;
40044;SDS011;25735;48.122;11.422;2023-03-08T03:01:13;13.80;;;7.33;;
40044;SDS011;25735;48.122;11.422;2023-03-08T03:03:39;12.38;;;7.40;;
40044;SDS011;25735;48.122;11.422;2023-03-08T03:06:11;11.88;;;7.40;;
40044;SDS011;25735;48.122;11.422;2023-03-08T03:08:36;12.77;;;7.28;;
40044;SDS011;25735;48.122;11.422;2023-03-08T03:11:05;12.05;;;7.22;;
40044;SDS011;25735;48.122;11.422;2023-03-08T03:13:34;11.88;;;7.00;;
40044;SDS011;25735;48.122;11.422;2023-03-08T03:16:03;13.05;;;8.02;;
40044;SDS011;25735;48.122;11.422;2023-03-08T03:18:29;14.00;;;7.65;;
40044;SDS011;25735;48.122;11.422;2023-03-08T03:20:54;12.88;;;8.02;;
40044;SDS011;25735;48.122;11.422;2023-03-08T03:23:19;13.73;;;7.93;;
40044;SDS011;25735;48.122;11.422;2023-03-08T03:25:44;10.82;;;8.05;;
40044;SDS011;25735;48.122;11.422;2023-03-08T03:28:09;13.13;;;7.60;;
40044;SDS011;25735;48.122;11.422;2023-03-08T03:30:34;13.80;;;8.38;;
40044;SDS011;25735;48.122;11.422;2023-03-08T03:32:59;14.35;;;8.75;;
40044;SDS011;25735;48.122;11.422;2023-03-08T03:35:25;12.38;;;7.95;;
40044;SDS011;25735;48.122;11.422;2023-03-08T03:37:50;12.85;;;7.50;;
40044;SDS011;25735;48.122;11.422;2023-03-08T03:40:15;13.10;;;7.63;;
40044;SDS011;25735;48.122;11.422;2023-03-08T03:42:40;12.55;;;8.18;;
40044;SDS011;25735;48.122;11.422;2023-03-08T03:45:06;16.67;;;8.80;;
40044;SDS011;25735;48.122;11.422;2023-03-08T03:47:31;14.75;;;8.85;;
40044;SDS011;25735;48.122;11.422;2023-03-08T03:49:56;12.95;;;8.43;;
40044;SDS011;25735;48.122;11.422;2023-03-08T03:52:21;15.05;;;8.23;;
40044;SDS011;25735;48.122;11.422;2023-03-08T03:54:47;14.33;;;7.90;;
40044;SDS011;25735;48.122;11.422;2023-03-08T03:57:12;15.57;;;8.93;;
40044;SDS011;25735;48.122;11.422;2023-03-08T03:59:37;14.68;;;7.57;;
40044;SDS011;25735;48.122;11.422;2023-03-08T04:02:02;12.30;;;7.88;;
40044;SDS011;25735;48.122;11.422;2023-03-08T04:04:27;12.80;;;8.03;;
40044;SDS011;25735;48.122;11.422;2023-03-08T04:06:52;12.20;;;8.32;;
40044;SDS011;25735;48.122;11.422;2023-03-08T04:09:18;11.27;;;7.10;;
40044;SDS011;25735;48.122;11.422;2023-03-08T04:11:43;14.38;;;8.35;;
40044;SDS011;25735;48.122;11.422;2023-03-08T04:14:08;14.75;;;8.02;;
40044;SDS011;25735;48.122;11.422;2023-03-08T04:16:34;13.35;;;8.88;;
40044;SDS011;25735;48.122;11.422;2023-03-08T04:19:01;11.82;;;7.72;;
40044;SDS011;25735;48.122;11.422;2023-03-08T04:21:26;13.02;;;8.07;;
40044;SDS011;25735;48.122;11.422;2023-03-08T04:23:52;13.45;;;7.95;;
40044;SDS011;25735;48.122;11.422;2023-03-08T04:26:17;13.65;;;8.23;;
40044;SDS011;25735;48.122;11.422;2023-03-08T04:28:43;14.95;;;8.85;;
40044;SDS011;25735;48.122;11.422;2023-03-08T04:33:36;13.70;;;7.55;;
40044;SDS011;25735;48.122;11.422;2023-03-08T04:36:01;14.52;;;7.35;;
40044;SDS011;25735;48.122;11.422;2023-03-08T04:38:26;14.50;;;8.97;;
40044;SDS011;25735;48.122;11.422;2023-03-08T04:40:51;13.85;;;8.38;;
40044;SDS011;25735;48.122;11.422;2023-03-08T04:43:25;15.23;;;8.57;;
40044;SDS011;25735;48.122;11.422;2023-03-08T04:45:51;16.05;;;8.43;;
40044;SDS011;25735;48.122;11.422;2023-03-08T04:48:16;13.18;;;8.43;;
40044;SDS011;25735;48.122;11.422;2023-03-08T04:50:41;12.32;;;8.13;;
40044;SDS011;25735;48.122;11.422;2023-03-08T04:53:06;13.60;;;7.95;;
40044;SDS011;25735;48.122;11.422;2023-03-08T04:55:32;10.02;;;7.50;;
40044;SDS011;25735;48.122;11.422;2023-03-08T04:57:57;12.90;;;7.80;;
40044;SDS011;25735;48.122;11.422;2023-03-08T05:00:22;10.85;;;7.85;;
40044;SDS011;25735;48.122;11.422;2023-03-08T05:02:47;13.38;;;7.85;;
40044;SDS011;25735;48.122;11.422;2023-03-08T05:05:12;11.68;;;7.05;;
40044;SDS011;25735;48.122;11.422;2023-03-08T05:07:38;13.67;;;7.93;;
40044;SDS011;25735;48.122;11.422;2023-03-08T05:10:03;13.70;;;8.48;;
40044;SDS011;25735;48.122;11.422;2023-03-08T05:12:28;15.68;;;8.48;;
40044;SDS011;25735;48.122;11.422;2023-03-08T05:14:53;14.83;;;9.13;;
40044;SDS011;25735;48.122;11.422;2023-03-08T05:17:18;13.55;;;8.77;;
40044;SDS011;25735;48.122;11.422;2023-03-08T05:19:44;13.88;;;9.30;;
40044;SDS011;25735;48.122;11.422;2023-03-08T05:22:09;13.87;;;8.07;;
40044;SDS011;25735;48.122;11.422;2023-03-08T05:24:36;14.82;;;8.60;;
40044;SDS011;25735;48.122;11.422;2023-03-08T05:27:03;15.02;;;9.23;;
40044;SDS011;25735;48.122;11.422;2023-03-08T05:29:29;14.80;;;8.93;;
40044;SDS011;25735;48.122;11.422;2023-03-08T05:31:54;13.10;;;8.52;;
40044;SDS011;25735;48.122;11.422;2023-03-08T05:34:19;14.63;;;9.00;;
40044;SDS011;25735;48.122;11.422;2023-03-08T05:36:44;13.50;;;8.17;;
40044;SDS011;25735;48.122;11.422;2023-03-08T05:39:09;14.65;;;8.52;;
40044;SDS011;25735;48.122;11.422;2023-03-08T05:41:34;14.43;;;8.67;;
40044;SDS011;25735;48.122;11.422;2023-03-08T05:44:00;13.45;;;8.75;;
40044;SDS011;25735;48.122;11.422;2023-03-08T05:46:25;12.60;;;8.55;;
40044;SDS011;25735;48.122;11.422;2023-03-08T05:48:50;14.68;;;8.50;;
40044;SDS011;25735;48.122;11.422;2023-03-08T05:51:16;14.13;;;8.93;;
40044;SDS011;25735;48.122;11.422;2023-03-08T05:53:42;14.55;;;8.82;;
40044;SDS011;25735;48.122;11.422;2023-03-08T05:56:08;14.98;;;9.52;;
40044;SDS011;25735;48.122;11.422;2023-03-08T05:58:34;14.48;;;9.45;;
40044;SDS011;25735;48.122;11.422;2023-03-08T06:01:07;14.45;;;9.57;;
40044;SDS011;25735;48.122;11.422;2023-03-08T06:03:32;15.55;;;9.63;;
40044;SDS011;25735;48.122;11.422;2023-03-08T06:05:57;17.65;;;9.90;;
40044;SDS011;25735;48.122;11.422;2023-03-08T06:08:22;15.53;;;9.97;;
40044;SDS011;25735;48.122;11.422;2023-03-08T06:10:47;18.05;;;10.80;;
40044;SDS011;25735;48.122;11.422;2023-03-08T06:13:12;16.27;;;10.15;;
40044;SDS011;25735;48.122;11.422;2023-03-08T06:15:38;20.87;;;10.80;;
40044;SDS011;25735;48.122;11.422;2023-03-08T06:18:03;18.02;;;11.85;;
40044;SDS011;25735;48.122;11.422;2023-03-08T06:20:28;15.25;;;10.43;;
40044;SDS011;25735;48.122;11.422;2023-03-08T06:22:54;16.40;;;10.83;;
40044;SDS011;25735;48.122;11.422;2023-03-08T06:25:19;15.32;;;9.73;;
40044;SDS011;25735;48.122;11.422;2023-03-08T06:27:44;15.30;;;10.43;;
40044;SDS011;25735;48.122;11.422;2023-03-08T06:30:09;15.35;;;10.70;;
40044;SDS011;25735;48.122;11.422;2023-03-08T06:32:35;16.85;;;10.32;;
40044;SDS011;25735;48.122;11.422;2023-03-08T06:35:01;16.80;;;10.20;;
40044;SDS011;25735;48.122;11.422;2023-03-08T06:37:30;13.45;;;9.82;;
40044;SDS011;25735;48.122;11.422;2023-03-08T06:39:55;18.02;;;10.25;;
40044;SDS011;25735;48.122;11.422;2023-03-08T06:42:20;19.10;;;11.60;;
40044;SDS011;25735;48.122;11.422;2023-03-08T06:44:45;18.80;;;11.27;;
40044;SDS011;25735;48.122;11.422;2023-03-08T06:47:11;16.20;;;11.18;;
40044;SDS011;25735;48.122;11.422;2023-03-08T06:49:36;20.38;;;10.27;;
40044;SDS011;25735;48.122;11.422;2023-03-08T06:52:01;21.77;;;10.90;;
40044;SDS011;25735;48.122;11.422;2023-03-08T06:54:26;20.80;;;10.77;;
40044;SDS011;25735;48.122;11.422;2023-03-08T06:56:51;18.10;;;11.23;;
40044;SDS011;25735;48.122;11.422;2023-03-08T06:59:16;17.65;;;11.02;;
40044;SDS011;25735;48.122;11.422;2023-03-08T07:01:41;19.03;;;10.90;;
40044;SDS011;25735;48.122;11.422;2023-03-08T07:04:07;19.00;;;11.13;;
40044;SDS011;25735;48.122;11.422;2023-03-08T07:06:32;16.40;;;10.87;;
40044;SDS011;25735;48.122;11.422;2023-03-08T07:08:57;16.90;;;11.23;;
40044;SDS011;25735;48.122;11.422;2023-03-08T07:11:22;17.07;;;10.60;;
40044;SDS011;25735;48.122;11.422;2023-03-08T07:13:47;18.25;;;12.00;;
40044;SDS011;25735;48.122;11.422;2023-03-08T07:16:12;16.03;;;10.67;;
40044;SDS011;25735;48.122;11.422;2023-03-08T07:18:38;19.42;;;11.30;;
40044;SDS011;25735;48.122;11.422;2023-03-08T07:21:04;16.40;;;10.48;;
40044;SDS011;25735;48.122;11.422;2023-03-08T07:23:29;17.85;;;10.40;;
40044;SDS011;25735;48.122;11.422;2023-03-08T07:25:54;18.08;;;11.60;;
40044;SDS011;25735;48.122;11.422;2023-03-08T07:28:19;16.23;;;10.90;;
40044;SDS011;25735;48.122;11.422;2023-03-08T07:30:48;16.75;;;10.75;;
40044;SDS011;25735;48.122;11.422;2023-03-08T07:33:14;17.13;;;11.23;;
40044;SDS011;25735;48.122;11.422;2023-03-08T07:35:39;18.80;;;11.05;;
40044;SDS011;25735;48.122;11.422;2023-03-08T07:38:04;16.27;;;11.07;;
40044;SDS011;25735;48.122;11.422;2023-03-08T07:40:29;20.00;;;11.95;;
40044;SDS011;25735;48.122;11.422;2023-03-08T07:42:54;17.60;;;11.73;;
40044;SDS011;25735;48.122;11.422;2023-03-08T07:45:20;15.98;;;10.55;;
40044;SDS011;25735;48.122;11.422;2023-03-08T07:47:48;21.25;;;13.43;;
40044;SDS011;25735;48.122;11.422;2023-03-08T07:50:13;18.30;;;11.27;;
40044;SDS011;25735;48.122;11.422;2023-03-08T07:52:39;16.98;;;11.70;;
40044;SDS011;25735;48.122;11.422;2023-03-08T07:55:04;23.38;;;11.45;;
40044;SDS011;25735;48.122;11.422;2023-03-08T07:57:29;17.13;;;11.15;;
40044;SDS011;25735;48.122;11.422;2023-03-08T07:59:54;15.73;;;10.25;;
40044;SDS011;25735;48.122;11.422;2023-03-08T08:02:20;19.50;;;11.70;;
40044;SDS011;25735;48.122;11.422;2023-03-08T08:04:45;17.73;;;11.10;;
40044;SDS011;25735;48.122;11.422;2023-03-08T08:07:11;19.52;;;9.75;;
40044;SDS011;25735;48.122;11.422;2023-03-08T08:09:37;16.05;;;9.93;;
40044;SDS011;25735;48.122;11.422;2023-03-08T08:12:03;13.50;;;9.55;;
40044;SDS011;25735;48.122;11.422;2023-03-08T08:14:28;15.48;;;9.40;;
40044;SDS011;25735;48.122;11.422;2023-03-08T08:16:54;14.15;;;9.55;;
40044;SDS011;25735;48.122;11.422;2023-03-08T08:19:19;15.32;;;10.32;;
40044;SDS011;25735;48.122;11.422;2023-03-08T08:21:44;14.00;;;9.35;;
40044;SDS011;25735;48.122;11.422;2023-03-08T08:24:10;13.63;;;9.30;;
40044;SDS011;25735;48.122;11.422;2023-03-08T08:26:35;15.50;;;9.98;;
40044;SDS011;25735;48.122;11.422;2023-03-08T08:29:00;17.85;;;9.30;;
40044;SDS011;25735;48.122;11.422;2023-03-08T08:31:27;13.18;;;8.98;;
40044;SDS011;25735;48.122;11.422;2023-03-08T08:33:54;14.55;;;9.55;;
40044;SDS011;25735;48.122;11.422;2023-03-08T08:36:20;14.30;;;10.30;;
40044;SDS011;25735;48.122;11.422;2023-03-08T08:38:45;13.55;;;8.98;;
40044;SDS011;25735;48.122;11.422;2023-03-08T08:41:11;15.73;;;9.85;;
40044;SDS011;25735;48.122;11.422;2023-03-08T08:43:39;12.75;;;9.80;;
40044;SDS011;25735;48.122;11.422;2023-03-08T08:46:04;15.48;;;9.45;;
40044;SDS011;25735;48.122;11.422;2023-03-08T08:48:30;16.48;;;10.82;;
40044;SDS011;25735;48.122;11.422;2023-03-08T08:50:57;14.38;;;9.70;;
40044;SDS011;25735;48.122;11.422;2023-03-08T08:53:23;16.65;;;10.00;;
40044;SDS011;25735;48.122;11.422;2023-03-08T08:55:48;12.63;;;9.32;;
40044;SDS011;25735;48.122;11.422;2023-03-08T08:58:13;16.25;;;10.48;;
40044;SDS011;25735;48.122;11.422;2023-03-08T09:00:38;12.95;;;9.60;;
40044;SDS011;25735;48.122;11.422;2023-03-08T09:03:04;13.73;;;9.50;;
40044;SDS011;25735;48.122;11.422;2023-03-08T09:05:29;15.85;;;8.65;;
40044;SDS011;25735;48.122;11.422;2023-03-08T09:07:55;12.95;;;9.50;;
40044;SDS011;25735;48.122;11.422;2023-03-08T09:10:22;13.77;;;8.30;;
40044;SDS011;25735;48.122;11.422;2023-03-08T09:12:47;13.80;;;9.07;;
40044;SDS011;25735;48.122;11.422;2023-03-08T09:15:12;12.02;;;8.38;;
40044;SDS011;25735;48.122;11.422;2023-03-08T09:17:38;14.93;;;8.75;;
40044;SDS011;25735;48.122;11.422;2023-03-08T09:20:03;15.68;;;9.85;;
40044;SDS011;25735;48.122;11.422;2023-03-08T09:22:30;13.23;;;9.18;;
40044;SDS011;25735;48.122;11.422;2023-03-08T09:24:55;15.57;;;9.55;;
40044;SDS011;25735;48.122;11.422;2023-03-08T09:27:21;14.68;;;9.05;;
40044;SDS011;25735;48.122;11.422;2023-03-08T09:29:46;14.23;;;9.38;;
40044;SDS011;25735;48.122;11.422;2023-03-08T09:32:11;16.77;;;9.93;;
40044;SDS011;25735;48.122;11.422;2023-03-08T09:34:36;12.45;;;8.57;;
40044;SDS011;25735;48.122;11.422;2023-03-08T09:37:01;13.23;;;8.97;;
40044;SDS011;25735;48.122;11.422;2023-03-08T09:39:27;14.52;;;9.77;;
40044;SDS011;25735;48.122;11.422;2023-03-08T09:49:15;11.27;;;8.40;;
40044;SDS011;25735;48.122;11.422;2023-03-08T09:51:43;15.07;;;9.57;;
40044;SDS011;25735;48.122;11.422;2023-03-08T09:54:12;14.02;;;9.57;;
40044;SDS011;25735;48.122;11.422;2023-03-08T09:59:11;14.10;;;9.87;;
40044;SDS011;25735;48.122;11.422;2023-03-08T10:09:25;13.32;;;8.52;;
40044;SDS011;25735;48.122;11.422;2023-03-08T10:12:02;12.18;;;8.75;;
40044;SDS011;25735;48.122;11.422;2023-03-08T10:14:36;12.77;;;8.85;;
40044;SDS011;25735;48.122;11.422;2023-03-08T10:17:04;13.02;;;10.00;;
40044;SDS011;25735;48.122;11.422;2023-03-08T10:19:35;12.73;;;8.85;;
40044;SDS011;25735;48.122;11.422;2023-03-08T10:22:03;14.30;;;9.18;;
40044;SDS011;25735;48.122;11.422;2023-03-08T10:24:40;14.73;;;10.18;;
40044;SDS011;25735;48.122;11.422;2023-03-08T10:27:26;12.40;;;8.13;;
40044;SDS011;25735;48.122;11.422;2023-03-08T10:29:56;16.05;;;10.02;;
40044;SDS011;25735;48.122;11.422;2023-03-08T10:32:22;17.42;;;10.45;;
40044;SDS011;25735;48.122;11.422;2023-03-08T10:34:47;14.10;;;9.18;;
40044;SDS011;25735;48.122;11.422;2023-03-08T10:37:13;16.17;;;9.45;;
40044;SDS011;25735;48.122;11.422;2023-03-08T10:39:49;13.70;;;8.75;;
40044;SDS011;25735;48.122;11.422;2023-03-08T10:42:17;13.73;;;9.15;;
40044;SDS011;25735;48.122;11.422;2023-03-08T10:47:30;14.35;;;9.55;;
40044;SDS011;25735;48.122;11.422;2023-03-08T10:50:03;13.50;;;9.85;;
40044;SDS011;25735;48.122;11.422;2023-03-08T10:52:28;14.88;;;10.00;;
40044;SDS011;25735;48.122;11.422;2023-03-08T10:55:00;14.13;;;8.40;;
40044;SDS011;25735;48.122;11.422;2023-03-08T10:57:25;18.65;;;9.48;;
40044;SDS011;25735;48.122;11.422;2023-03-08T10:59:51;9.32;;;6.30;;
40044;SDS011;25735;48.122;11.422;2023-03-08T11:02:17;13.00;;;7.70;;
40044;SDS011;25735;48.122;11.422;2023-03-08T11:04:53;12.82;;;7.72;;
40044;SDS011;25735;48.122;11.422;2023-03-08T11:07:22;10.65;;;8.13;;
40044;SDS011;25735;48.122;11.422;2023-03-08T11:09:48;12.65;;;6.95;;
40044;SDS011;25735;48.122;11.422;2023-03-08T11:12:23;13.25;;;8.40;;
40044;SDS011;25735;48.122;11.422;2023-03-08T11:14:49;12.45;;;7.10;;
40044;SDS011;25735;48.122;11.422;2023-03-08T11:20:02;8.03;;;4.57;;
40044;SDS011;25735;48.122;11.422;2023-03-08T11:22:40;5.57;;;3.95;;
40044;SDS011;25735;48.122;11.422;2023-03-08T11:25:12;8.70;;;5.28;;
40044;SDS011;25735;48.122;11.422;2023-03-08T11:33:35;8.77;;;5.35;;
40044;SDS011;25735;48.122;11.422;2023-03-08T11:35:54;6.57;;;4.68;;
40044;SDS011;25735;48.122;11.422;2023-03-08T11:38:29;5.50;;;3.67;;
40044;SDS011;25735;48.122;11.422;2023-03-08T11:40:58;4.38;;;3.42;;
40044;SDS011;25735;48.122;11.422;2023-03-08T11:45:54;5.30;;;3.67;;
40044;SDS011;25735;48.122;11.422;2023-03-08T11:50:48;5.93;;;3.95;;
40044;SDS011;25735;48.122;11.422;2023-03-08T11:53:27;4.18;;;3.30;;
40044;SDS011;25735;48.122;11.422;2023-03-08T11:56:09;4.93;;;4.03;;
40044;SDS011;25735;48.122;11.422;2023-03-08T11:58:38;4.90;;;3.83;;
40044;SDS011;25735;48.122;11.422;2023-03-08T12:01:17;6.20;;;4.10;;
40044;SDS011;25735;48.122;11.422;2023-03-08T12:03:44;6.63;;;3.90;;
40044;SDS011;25735;48.122;11.422;2023-03-08T12:06:18;6.60;;;4.22;;
40044;SDS011;25735;48.122;11.422;2023-03-08T12:09:04;6.53;;;4.38;;
40044;SDS011;25735;48.122;11.422;2023-03-08T12:11:40;5.93;;;4.40;;
40044;SDS011;25735;48.122;11.422;2023-03-08T12:14:12;4.80;;;3.63;;
40044;SDS011;25735;48.122;11.422;2023-03-08T12:21:59;6.13;;;4.30;;
40044;SDS011;25735;48.122;11.422;2023-03-08T12:24:37;7.60;;;4.68;;
40044;SDS011;25735;48.122;11.422;2023-03-08T12:29:43;5.47;;;4.03;;
40044;SDS011;25735;48.122;11.422;2023-03-08T12:32:12;5.03;;;3.47;;
40044;SDS011;25735;48.122;11.422;2023-03-08T12:34:38;5.72;;;4.38;;
40044;SDS011;25735;48.122;11.422;2023-03-08T12:37:16;7.53;;;4.70;;
40044;SDS011;25735;48.122;11.422;2023-03-08T12:39:42;6.53;;;4.05;;
40044;SDS011;25735;48.122;11.422;2023-03-08T12:42:28;5.72;;;3.80;;
40044;SDS011;25735;48.122;11.422;2023-03-08T12:45:03;5.03;;;3.58;;
40044;SDS011;25735;48.122;11.422;2023-03-08T12:47:29;4.30;;;3.15;;
40044;SDS011;25735;48.122;11.422;2023-03-08T12:49:54;4.43;;;3.43;;
40044;SDS011;25735;48.122;11.422;2023-03-08T12:57:21;4.57;;;2.17;;
40044;SDS011;25735;48.122;11.422;2023-03-08T12:59:47;3.38;;;1.63;;
40044;SDS011;25735;48.122;11.422;2023-03-08T13:04:44;2.25;;;1.58;;
40044;SDS011;25735;48.122;11.422;2023-03-08T13:09:36;1.42;;;1.00;;
40044;SDS011;25735;48.122;11.422;2023-03-08T13:14:37;3.97;;;0.90;;
40044;SDS011;25735;48.122;11.422;2023-03-08T13:17:49;1.20;;;0.73;;
40044;SDS011;25735;48.122;11.422;2023-03-08T13:19:48;1.13;;;0.90;;
40044;SDS011;25735;48.122;11.422;2023-03-08T13:22:19;1.42;;;0.98;;
40044;SDS011;25735;48.122;11.422;2023-03-08T13:24:46;0.73;;;0.70;;
40044;SDS011;25735;48.122;11.422;2023-03-08T13:30:14;2.50;;;0.95;;
40044;SDS011;25735;48.122;11.422;2023-03-08T13:32:41;2.28;;;0.63;;
40044;SDS011;25735;48.122;11.422;2023-03-08T13:35:10;1.40;;;0.82;;
40044;SDS011;25735;48.122;11.422;2023-03-08T13:37:37;1.33;;;0.98;;
40044;SDS011;25735;48.122;11.422;2023-03-08T13:40:03;0.77;;;0.77;;
40044;SDS011;25735;48.122;11.422;2023-03-08T13:42:38;1.50;;;0.95;;
40044;SDS011;25735;48.122;11.422;2023-03-08T13:45:16;2.78;;;1.20;;
40044;SDS011;25735;48.122;11.422;2023-03-08T13:47:41;1.80;;;0.70;;
40044;SDS011;25735;48.122;11.422;2023-03-08T13:50:13;4.43;;;0.68;;
40044;SDS011;25735;48.122;11.422;2023-03-08T13:52:40;1.73;;;0.95;;
40044;SDS011;25735;48.122;11.422;2023-03-08T13:55:06;0.80;;;0.70;;
40044;SDS011;25735;48.122;11.422;2023-03-08T13:57:33;0.50;;;0.45;;
40044;SDS011;25735;48.122;11.422;2023-03-08T14:00:02;1.05;;;0.40;;
40044;SDS011;25735;48.122;11.422;2023-03-08T14:02:43;2.90;;;0.90;;
40044;SDS011;25735;48.122;11.422;2023-03-08T14:05:14;0.60;;;0.50;;
40044;SDS011;25735;48.122;11.422;2023-03-08T14:07:39;1.58;;;0.77;;
40044;SDS011;25735;48.122;11.422;2023-03-08T14:10:05;2.40;;;0.82;;
40044;SDS011;25735;48.122;11.422;2023-03-08T14:12:36;2.30;;;0.70;;
40044;SDS011;25735;48.122;11.422;2023-03-08T14:15:02;1.98;;;0.68;;
40044;SDS011;25735;48.122;11.422;2023-03-08T14:17:28;1.30;;;0.63;;
40044;SDS011;25735;48.122;11.422;2023-03-08T14:20:36;0.65;;;0.52;;
40044;SDS011;25735;48.122;11.422;2023-03-08T14:22:45;0.90;;;0.60;;
40044;SDS011;25735;48.122;11.422;2023-03-08T14:25:20;5.25;;;0.68;;
40044;SDS011;25735;48.122;11.422;2023-03-08T14:27:46;1.70;;;0.57;;
40044;SDS011;25735;48.122;11.422;2023-03-08T14:30:15;1.23;;;0.55;;
40044;SDS011;25735;48.122;11.422;2023-03-08T14:32:52;0.88;;;0.63;;
40044;SDS011;25735;48.122;11.422;2023-03-08T14:35:21;1.48;;;0.50;;
40044;SDS011;25735;48.122;11.422;2023-03-08T14:37:46;0.50;;;0.50;;
40044;SDS011;25735;48.122;11.422;2023-03-08T14:42:41;1.38;;;0.60;;
40044;SDS011;25735;48.122;11.422;2023-03-08T14:45:21;1.90;;;1.05;;
40044;SDS011;25735;48.122;11.422;2023-03-08T14:48:22;1.42;;;0.85;;
40044;SDS011;25735;48.122;11.422;2023-03-08T14:50:49;1.27;;;0.63;;
40044;SDS011;25735;48.122;11.422;2023-03-08T14:53:21;1.63;;;0.52;;
40044;SDS011;25735;48.122;11.422;2023-03-08T14:55:47;1.70;;;0.70;;
40044;SDS011;25735;48.122;11.422;2023-03-08T14:58:12;0.88;;;0.60;;
40044;SDS011;25735;48.122;11.422;2023-03-08T15:00:47;3.55;;;0.60;;
40044;SDS011;25735;48.122;11.422;2023-03-08T15:03:12;0.80;;;0.50;;
40044;SDS011;25735;48.122;11.422;2023-03-08T15:05:37;1.98;;;0.57;;
40044;SDS011;25735;48.122;11.422;2023-03-08T15:08:03;0.82;;;0.60;;
40044;SDS011;25735;48.122;11.422;2023-03-08T15:10:32;1.00;;;0.63;;
40044;SDS011;25735;48.122;11.422;2023-03-08T15:12:57;0.70;;;0.60;;
40044;SDS011;25735;48.122;11.422;2023-03-08T15:15:23;2.10;;;1.05;;
40044;SDS011;25735;48.122;11.422;2023-03-08T15:17:48;2.83;;;0.70;;
40044;SDS011;25735;48.122;11.422;2023-03-08T15:20:13;1.30;;;0.67;;
40044;SDS011;25735;48.122;11.422;2023-03-08T15:22:41;1.13;;;0.70;;
40044;SDS011;25735;48.122;11.422;2023-03-08T15:27:47;0.82;;;0.70;;
40044;SDS011;25735;48.122;11.422;2023-03-08T15:30:14;0.57;;;0.50;;